createdAt,value
2019-05-16T00:03:57.986Z,10.09
2019-05-16T00:09:21.467Z,10.11
2019-05-16T00:14:45.992Z,10.16
2019-05-16T00:20:12.588Z,10.20
2019-05-16T00:25:38.607Z,10.25
2019-05-16T00:31:03.520Z,10.29
2019-05-16T00:36:27.799Z,10.33
2019-05-16T00:41:50.114Z,10.37
2019-05-16T00:47:13.267Z,10.40
2019-05-16T00:52:36.254Z,10.46
2019-05-16T00:58:00.985Z,10.48
2019-05-16T01:03:24.940Z,10.49
2019-05-16T01:08:49.493Z,10.50
2019-05-16T01:14:13.296Z,10.52
2019-05-16T01:19:38.022Z,10.56
2019-05-16T01:25:03.078Z,10.62
2019-05-16T01:30:28.964Z,10.64
2019-05-16T01:35:51.172Z,10.67
2019-05-16T01:41:13.791Z,10.69
2019-05-16T01:46:38.861Z,10.69
2019-05-16T01:52:00.741Z,10.70
2019-05-16T01:57:23.911Z,10.69
2019-05-16T02:02:48.804Z,10.73
2019-05-16T02:08:12.639Z,10.73
2019-05-16T02:13:34.816Z,10.78
2019-05-16T02:18:58.856Z,10.82
2019-05-16T02:24:21.954Z,10.86
2019-05-16T02:29:44.252Z,10.90
2019-05-16T02:35:11.823Z,10.92
2019-05-16T02:40:36.725Z,10.92
2019-05-16T02:46:01.622Z,10.96
2019-05-16T02:51:24.922Z,10.97
2019-05-16T02:56:50.628Z,11.00
2019-05-16T03:02:14.274Z,11.00
2019-05-16T03:07:43.449Z,10.99
2019-05-16T03:13:04.104Z,11.00
2019-05-16T03:18:30.962Z,11.01
2019-05-16T03:23:54.745Z,11.02
2019-05-16T03:29:21.751Z,11.03
2019-05-16T03:34:45.097Z,11.04
2019-05-16T03:40:11.063Z,11.04
2019-05-16T03:45:35.142Z,11.06
2019-05-16T03:51:00.794Z,11.07
2019-05-16T03:56:26.109Z,11.10
2019-05-16T04:01:51.176Z,11.09
2019-05-16T04:07:15.256Z,11.08
2019-05-16T04:12:42.062Z,11.06
2019-05-16T04:18:05.895Z,11.08
2019-05-16T04:23:31.611Z,11.08
2019-05-16T04:28:56.240Z,11.06
2019-05-16T04:34:21.269Z,11.06
2019-05-16T04:39:45.979Z,11.11
2019-05-16T04:45:11.826Z,11.17
2019-05-16T04:50:36.048Z,11.15
2019-05-16T04:56:01.707Z,11.14
2019-05-16T05:01:23.751Z,11.11
2019-05-16T05:06:45.952Z,11.09
2019-05-16T05:12:11.375Z,11.03
2019-05-16T05:17:35.304Z,10.78
2019-05-16T05:23:00.339Z,10.67
2019-05-16T05:28:23.985Z,10.57
2019-05-16T05:33:46.981Z,10.61
2019-05-16T05:39:14.832Z,10.80
2019-05-16T05:44:33.499Z,10.92
2019-05-16T05:49:56.413Z,11.02
2019-05-16T05:55:19.977Z,11.09
2019-05-16T06:00:42.740Z,11.12
2019-05-16T06:06:04.915Z,11.19
2019-05-16T06:11:27.182Z,11.28
2019-05-16T06:16:50.833Z,11.40
2019-05-16T06:22:13.469Z,11.47
2019-05-16T06:27:35.678Z,11.51
2019-05-16T06:32:59.680Z,11.57
2019-05-16T06:38:22.106Z,11.61
2019-05-16T06:43:44.374Z,11.66
2019-05-16T06:49:06.502Z,11.82
2019-05-16T06:54:29.906Z,11.83
2019-05-16T06:59:52.301Z,11.86
2019-05-16T07:05:14.964Z,11.86
2019-05-16T07:10:39.810Z,11.87
2019-05-16T07:16:01.716Z,11.83
2019-05-16T07:21:26.696Z,11.79
2019-05-16T07:26:50.059Z,11.79
2019-05-16T07:32:13.042Z,11.79
2019-05-16T07:37:35.207Z,11.80
2019-05-16T07:42:51.175Z,11.77
2019-05-16T07:48:13.517Z,11.77
2019-05-16T07:53:35.750Z,11.76
2019-05-16T07:58:58.099Z,11.90
2019-05-16T08:04:22.486Z,11.98
2019-05-16T08:09:46.684Z,11.96
2019-05-16T08:15:10.148Z,11.97
2019-05-16T08:20:34.579Z,11.95
2019-05-16T08:26:02.712Z,11.93
2019-05-16T08:31:25.109Z,11.88
2019-05-16T08:36:47.393Z,11.88
2019-05-16T08:42:13.111Z,11.97
2019-05-16T08:47:33.645Z,12.00
2019-05-16T08:52:56.315Z,12.06
2019-05-16T08:58:22.180Z,12.19
2019-05-16T09:03:42.859Z,12.33
2019-05-16T09:09:22.898Z,12.38
2019-05-16T09:14:35.192Z,12.45
2019-05-16T09:19:52.940Z,12.55
2019-05-16T09:25:18.146Z,12.57
2019-05-16T09:30:39.784Z,12.59
2019-05-16T09:36:02.046Z,12.61
2019-05-16T09:41:26.585Z,12.71
2019-05-16T09:46:48.062Z,12.81
2019-05-16T09:52:10.469Z,12.90
2019-05-16T09:57:32.641Z,12.89
2019-05-16T10:02:54.951Z,12.99
2019-05-16T10:08:18.791Z,13.13
2019-05-16T10:13:40.985Z,13.27
2019-05-16T10:19:03.813Z,13.31
2019-05-16T10:24:26.893Z,13.38
2019-05-16T10:29:49.730Z,13.64
2019-05-16T10:35:12.506Z,13.92
2019-05-16T10:40:37.013Z,14.13
2019-05-16T10:46:00.531Z,14.11
2019-05-16T10:51:23.967Z,14.15
2019-05-16T10:56:46.902Z,14.15
2019-05-16T11:02:09.259Z,14.13
2019-05-16T11:07:31.621Z,14.23
2019-05-16T11:12:55.721Z,14.35
2019-05-16T11:18:17.768Z,14.34
2019-05-16T11:23:39.957Z,14.34
2019-05-16T11:29:02.174Z,14.46
2019-05-16T11:34:26.500Z,14.62
2019-05-16T11:39:48.238Z,14.62
2019-05-16T11:45:12.158Z,14.96
2019-05-16T11:50:37.284Z,15.09
2019-05-16T11:56:01.804Z,15.20
2019-05-16T12:01:27.271Z,15.09
2019-05-16T12:06:48.535Z,15.18
2019-05-16T12:12:10.742Z,15.40
2019-05-16T12:17:32.940Z,15.49
2019-05-16T12:22:55.244Z,15.58
2019-05-16T12:28:17.485Z,15.96
2019-05-16T12:33:39.639Z,16.21
2019-05-16T12:39:01.937Z,16.19
2019-05-16T12:44:24.146Z,16.27
2019-05-16T12:49:47.422Z,16.30
2019-05-16T12:55:11.190Z,16.26
2019-05-16T13:00:33.998Z,16.01
2019-05-16T13:05:57.106Z,16.16
2019-05-16T13:11:19.830Z,16.10
2019-05-16T13:16:42.051Z,16.02
2019-05-16T13:22:04.235Z,15.95
2019-05-16T13:27:27.415Z,15.73
2019-05-16T13:32:49.756Z,15.54
2019-05-16T13:38:12.046Z,15.54
2019-05-16T13:43:34.268Z,15.52
2019-05-16T13:48:56.459Z,15.75
2019-05-16T13:54:18.696Z,15.93
2019-05-16T13:59:41.000Z,15.95
2019-05-16T14:05:02.905Z,15.96
2019-05-16T14:10:29.827Z,16.28
2019-05-16T14:15:52.607Z,16.41
2019-05-16T14:21:17.909Z,16.36
2019-05-16T14:26:38.761Z,16.37
2019-05-16T14:32:00.957Z,16.70
2019-05-16T14:37:23.665Z,17.29
2019-05-16T14:42:47.878Z,18.28
2019-05-16T14:48:10.067Z,19.29
2019-05-16T14:53:32.173Z,19.09
2019-05-16T14:58:57.437Z,18.66
2019-05-16T15:04:18.346Z,18.36
2019-05-16T15:09:40.514Z,17.95
2019-05-16T15:15:17.141Z,17.90
2019-05-16T15:20:28.130Z,18.04
2019-05-16T15:25:50.462Z,17.99
2019-05-16T15:31:12.635Z,17.81
2019-05-16T15:36:37.133Z,17.57
2019-05-16T15:41:58.839Z,17.41
2019-05-16T15:47:21.170Z,17.10
2019-05-16T15:52:44.690Z,16.88
2019-05-16T15:58:10.166Z,16.85
2019-05-16T16:03:31.301Z,17.04
2019-05-16T16:08:53.474Z,17.10
2019-05-16T16:14:17.162Z,17.01
2019-05-16T16:19:39.683Z,16.92
2019-05-16T16:25:01.599Z,16.77
2019-05-16T16:30:27.716Z,16.70
2019-05-16T16:35:50.141Z,16.87
2019-05-16T16:41:12.242Z,16.89
2019-05-16T16:46:34.590Z,16.66
2019-05-16T16:51:57.399Z,16.65
2019-05-16T16:57:20.321Z,16.57
2019-05-16T17:02:58.461Z,16.50
2019-05-16T17:08:08.070Z,16.35
2019-05-16T17:13:31.813Z,15.98
2019-05-16T17:18:54.026Z,15.78
2019-05-16T17:24:16.821Z,15.68
2019-05-16T17:29:41.239Z,15.61
2019-05-16T17:35:06.790Z,15.54
2019-05-16T17:40:30.973Z,15.45
2019-05-16T17:45:54.457Z,15.44
2019-05-16T17:51:18.870Z,15.45
2019-05-16T17:56:44.026Z,15.36
2019-05-16T18:02:06.851Z,15.31
2019-05-16T18:07:30.272Z,15.19
2019-05-16T18:12:56.819Z,15.13
2019-05-16T18:18:21.512Z,15.10
2019-05-16T18:23:47.205Z,15.08
2019-05-16T18:29:11.264Z,15.03
2019-05-16T18:34:37.687Z,15.00
2019-05-16T18:40:02.532Z,14.95
2019-05-16T18:45:27.076Z,14.94
2019-05-16T18:50:50.326Z,14.89
2019-05-16T18:56:16.778Z,14.82
2019-05-16T19:01:40.029Z,14.87
2019-05-16T19:11:17.548Z,14.93
2019-05-16T19:16:41.801Z,14.78
2019-05-16T19:22:06.538Z,14.77
2019-05-16T19:27:29.623Z,14.75
2019-05-16T19:32:53.801Z,14.48
2019-05-16T19:38:17.309Z,14.31
2019-05-16T19:43:39.854Z,14.15
2019-05-16T19:49:03.957Z,14.09
2019-05-16T19:54:27.177Z,13.91
2019-05-16T19:59:50.700Z,13.83
2019-05-16T20:05:13.246Z,13.83
2019-05-16T20:10:36.636Z,13.81
2019-05-16T20:16:00.008Z,13.77
2019-05-16T20:21:23.655Z,13.67
2019-05-16T20:26:46.588Z,13.58
2019-05-16T20:32:11.459Z,13.46
2019-05-16T20:37:33.337Z,13.37
2019-05-16T20:42:59.452Z,13.24
2019-05-16T20:48:21.504Z,13.18
2019-05-16T20:53:49.558Z,13.15
2019-05-16T20:59:12.038Z,13.18
2019-05-16T21:04:37.249Z,13.16
2019-05-16T21:09:59.022Z,13.13
2019-05-16T21:15:26.226Z,13.02
2019-05-16T21:20:47.623Z,12.95
2019-05-16T21:26:10.880Z,12.80
2019-05-16T21:31:36.874Z,12.76
2019-05-16T21:37:11.320Z,12.71
2019-05-16T21:42:27.138Z,12.64
2019-05-16T21:47:51.087Z,12.59
2019-05-16T21:53:14.416Z,12.46
2019-05-16T21:58:37.016Z,12.40
2019-05-16T22:04:03.084Z,12.45
2019-05-16T22:09:26.975Z,12.42
2019-05-16T22:14:57.401Z,12.44
2019-05-16T22:20:20.921Z,12.49
2019-05-16T22:25:48.727Z,12.51
2019-05-16T22:31:12.511Z,12.50
2019-05-16T22:36:37.279Z,12.52
2019-05-16T22:42:01.017Z,12.45
2019-05-16T22:47:26.754Z,12.40
2019-05-16T22:52:50.137Z,12.43
2019-05-16T22:58:16.376Z,12.47
2019-05-16T23:03:40.064Z,12.47
2019-05-16T23:09:03.809Z,12.46
2019-05-16T23:14:28.087Z,12.48
2019-05-16T23:19:52.051Z,12.47
2019-05-16T23:25:17.182Z,12.50
2019-05-16T23:30:41.447Z,12.52
2019-05-16T23:36:07.069Z,12.50
2019-05-16T23:41:31.118Z,12.59
2019-05-16T23:46:56.673Z,12.70
2019-05-16T23:52:19.991Z,12.69
2019-05-16T23:57:46.622Z,12.60
